Time;durP1;ratioP1;P1;durP2;ratioP2;P2;SDS_P1;SDS_P2;PMS_P1;PMS_P2;Temp;Humidity;BMP_temperature;BMP_pressure;BME280_temperature;BME280_humidity;BME280_pressure;Samples;Min_cycle;Max_cycle;Signal;HPM_P1;HPM_P2
2023/07/21 00:00:29;;;;;;;;;2.67;2.00;;;;;22.18;38.92;101077.06;4923260;28;45364;-91
2023/07/21 00:02:54;;;;;;;;;2.67;2.00;;;;;21.98;38.87;101045.06;4923725;28;45558;-92
2023/07/21 00:05:22;;;;;;;;;1.33;1.00;;;;;22.11;38.60;101072.25;4940556;28;46070;-92
2023/07/21 00:07:49;;;;;;;;;2.00;1.00;;;;;22.14;38.87;101076.47;4922332;28;45572;-92
2023/07/21 00:10:15;;;;;;;;;1.00;1.00;;;;;21.85;38.41;101032.78;4923907;28;45320;-91
2023/07/21 00:12:49;;;;;;;;;3.00;1.33;;;;;22.11;38.78;101071.38;4940456;28;45326;-92
2023/07/21 00:15:19;;;;;;;;;3.67;1.67;;;;;21.93;38.70;101039.28;4923532;28;47199;-92
2023/07/21 00:17:49;;;;;;;;;2.00;2.00;;;;;21.99;39.07;101042.25;4939299;28;45455;-92
2023/07/21 00:20:25;;;;;;;;;2.00;2.00;;;;;21.87;38.62;101030.00;4940426;28;45302;-92
2023/07/21 00:22:51;;;;;;;;;1.00;1.00;;;;;21.92;39.23;101043.72;4924104;28;45356;-91
2023/07/21 00:25:16;;;;;;;;;1.00;1.00;;;;;22.01;39.10;101056.25;4935904;28;45593;-92
2023/07/21 00:27:43;;;;;;;;;2.00;1.00;;;;;21.92;39.22;101042.88;4939412;28;45504;-92
2023/07/21 00:30:09;;;;;;;;;1.00;1.00;;;;;21.85;39.05;101031.94;4939314;28;45355;-93
2023/07/21 00:32:38;;;;;;;;;2.00;1.67;;;;;21.86;39.03;101042.41;4940663;28;45305;-92
2023/07/21 00:35:08;;;;;;;;;1.00;1.00;;;;;21.79;39.06;101032.44;4919028;28;46824;-92
2023/07/21 00:37:37;;;;;;;;;1.00;1.00;;;;;21.69;39.73;101024.31;4927431;28;45436;-92
2023/07/21 00:40:13;;;;;;;;;2.00;2.00;;;;;21.62;39.59;101023.97;4939557;28;45396;-91
2023/07/21 00:43:09;;;;;;;;;1.33;1.33;;;;;21.71;40.15;101041.81;4920253;28;45361;-89
2023/07/21 09:08:49;;;;;;;;;4.00;3.33;;;;;21.66;43.78;101096.91;4879155;29;46016;-96
2023/07/21 09:11:16;;;;;;;;;4.67;4.67;;;;;21.73;43.50;101092.88;4889674;29;44796;-96
2023/07/21 09:13:53;;;;;;;;;4.00;4.00;;;;;21.79;43.49;101093.34;4877710;29;45013;-96
2023/07/21 09:16:21;;;;;;;;;2.67;2.67;;;;;21.91;44.08;101087.09;4879673;28;44821;-96
2023/07/21 09:19:24;;;;;;;;;4.25;3.25;;;;;22.08;43.19;101087.56;4879881;29;45506;-96
2023/07/21 09:21:56;;;;;;;;;8.00;5.00;;;;;22.23;43.01;101090.78;4917199;23;44931;-96
2023/07/21 09:24:52;;;;;;;;;3.00;3.00;;;;;22.32;42.67;101098.00;4878273;29;44781;-96
2023/07/21 09:27:25;;;;;;;;;3.67;3.67;;;;;22.40;42.49;101092.91;5010536;23;45884;-96
2023/07/21 09:30:03;;;;;;;;;4.33;4.33;;;;;22.53;43.09;101082.19;4995734;23;45426;-96
2023/07/21 09:32:37;;;;;;;;;3.00;2.33;;;;;22.65;42.40;101095.41;4939564;28;44712;-96
2023/07/21 09:35:04;;;;;;;;;6.00;4.33;;;;;22.76;42.34;101083.91;4936425;28;44674;-96
2023/07/21 09:37:34;;;;;;;;;3.33;3.33;;;;;22.85;42.22;101080.50;4938246;28;44877;-96
2023/07/21 09:40:09;;;;;;;;;4.33;2.67;;;;;22.89;42.02;101083.72;4954436;28;45567;-96
2023/07/21 09:42:35;;;;;;;;;4.33;4.00;;;;;22.96;41.89;101082.28;4940295;28;45091;-96
2023/07/21 09:45:00;;;;;;;;;2.67;2.67;;;;;23.09;41.25;101092.66;5087034;23;44930;-96
2023/07/21 09:47:42;;;;;;;;;1.67;1.67;;;;;23.21;41.06;101077.53;4938756;28;45563;-96
2023/07/21 09:50:09;;;;;;;;;4.00;2.00;;;;;23.34;41.46;101091.47;4939502;28;45512;-96
2023/07/21 09:52:39;;;;;;;;;4.33;3.00;;;;;23.48;40.76;101092.13;4936378;28;45401;-96
2023/07/21 09:55:21;;;;;;;;;2.67;2.67;;;;;23.56;40.53;101094.13;4935696;28;44812;-96
2023/07/21 09:57:48;;;;;;;;;3.00;3.00;;;;;23.68;39.76;101090.41;4937073;28;45381;-95
2023/07/21 10:00:16;;;;;;;;;5.33;4.00;;;;;23.78;40.08;101093.09;4913079;28;47220;-96
2023/07/21 10:09:26;;;;;;;;;3.33;3.00;;;;;24.15;39.66;101100.53;4924259;23;44741;-96
2023/07/21 10:12:52;;;;;;;;;3.67;3.33;;;;;24.35;39.60;101097.91;4883715;29;45898;-95
2023/07/21 10:15:20;;;;;;;;;3.67;3.00;;;;;24.62;38.71;101100.91;4880169;29;45402;-95
2023/07/21 10:17:58;;;;;;;;;3.33;3.33;;;;;24.82;38.76;101099.94;4884641;29;45002;-95
2023/07/21 10:20:38;;;;;;;;;3.00;3.00;;;;;24.99;38.55;101096.72;4887874;29;44968;-95
2023/07/21 10:23:05;;;;;;;;;4.67;3.67;;;;;25.09;38.36;101106.38;4884158;29;45828;-96
2023/07/21 10:25:58;;;;;;;;;4.67;3.67;;;;;25.14;37.48;101105.09;4896497;29;45049;-96
2023/07/21 17:34:04;;;;;;;;;2.00;2.00;;;;;26.01;28.77;101089.81;4671671;23;46190;-87
2023/07/21 17:36:32;;;;;;;;;4.00;4.00;;;;;25.96;28.87;101078.78;4893260;28;45863;-89
2023/07/21 17:38:57;;;;;;;;;5.00;5.00;;;;;25.95;28.66;101074.44;4890448;28;45772;-88
2023/07/21 17:41:23;;;;;;;;;5.67;5.33;;;;;25.91;28.59;101077.56;4882883;28;46186;-90
2023/07/21 17:43:53;;;;;;;;;5.33;5.33;;;;;25.84;28.82;101087.97;4898210;28;45544;-91
2023/07/21 17:46:19;;;;;;;;;9.00;8.00;;;;;25.98;28.52;101121.28;4904685;28;45484;-89
2023/07/21 17:48:44;;;;;;;;;8.00;5.67;;;;;25.96;28.76;101121.41;4904590;28;45613;-90
2023/07/21 17:51:18;;;;;;;;;3.33;3.33;;;;;25.86;28.33;101099.28;4901016;28;45428;-90
2023/07/21 17:53:43;;;;;;;;;4.00;4.00;;;;;25.91;28.60;101115.69;4893169;28;45464;-89
2023/07/21 17:56:09;;;;;;;;;3.00;3.00;;;;;25.85;29.12;101108.28;4914308;28;45603;-90
2023/07/21 17:58:37;;;;;;;;;3.67;3.67;;;;;25.73;28.84;101092.50;4885005;28;45745;-89
2023/07/21 18:01:08;;;;;;;;;4.67;4.00;;;;;25.71;28.97;101097.13;4912110;28;45460;-89
2023/07/21 18:03:39;;;;;;;;;4.33;4.33;;;;;25.68;28.86;101092.09;4892637;29;45332;-90
2023/07/21 18:06:04;;;;;;;;;7.00;5.67;;;;;25.73;28.99;101110.31;4886122;28;45982;-89
2023/07/21 18:08:30;;;;;;;;;6.00;5.00;;;;;25.69;28.72;101114.25;4905525;28;45431;-90
2023/07/21 18:11:19;;;;;;;;;5.00;4.33;;;;;25.59;28.63;101108.97;4898759;28;47733;-89
2023/07/21 18:13:44;;;;;;;;;4.67;4.67;;;;;25.59;28.64;101119.63;4909205;28;46354;-89
2023/07/21 18:16:15;;;;;;;;;4.67;4.00;;;;;25.61;28.93;101129.13;4913929;28;45316;-88
2023/07/21 18:18:41;;;;;;;;;3.33;2.33;;;;;25.57;29.00;101135.75;4915571;28;45545;-89
2023/07/21 21:48:38;;;;;;;;;6.25;6.00;;;;;22.36;33.39;101337.19;4204695;23;45294;-89
2023/07/21 21:51:03;;;;;;;;;5.25;5.00;;;;;22.32;33.14;101333.06;4879219;28;47469;-91
2023/07/21 21:53:28;;;;;;;;;5.00;4.33;;;;;22.14;33.02;101309.69;4858320;29;45528;-90
2023/07/21 21:55:54;;;;;;;;;4.25;4.25;;;;;22.27;32.84;101336.09;4897932;29;45394;-91
2023/07/21 21:58:19;;;;;;;;;6.33;6.00;;;;;22.25;33.32;101325.59;4882106;29;45555;-91
2023/07/21 22:00:44;;;;;;;;;4.00;4.00;;;;;22.16;32.95;101331.59;4899936;29;45605;-92
2023/07/21 22:03:10;;;;;;;;;4.67;4.67;;;;;22.10;33.01;101327.63;4882509;29;45369;-90
2023/07/21 22:05:35;;;;;;;;;5.33;4.67;;;;;22.10;32.72;101342.66;4900800;29;45269;-91
2023/07/21 22:08:01;;;;;;;;;5.67;5.67;;;;;22.09;32.82;101338.34;4882911;29;45330;-90
2023/07/21 22:10:27;;;;;;;;;3.00;3.00;;;;;22.04;32.96;101346.63;4899497;28;46667;-90
2023/07/21 22:12:52;;;;;;;;;4.00;4.00;;;;;22.01;32.98;101346.84;4897496;29;45435;-91
2023/07/21 22:15:18;;;;;;;;;5.00;5.00;;;;;21.95;33.41;101336.72;4882238;29;45449;-91
2023/07/21 22:17:45;;;;;;;;;5.33;5.33;;;;;21.95;33.11;101340.22;4899054;28;45512;-90
2023/07/21 22:20:11;;;;;;;;;5.00;5.00;;;;;21.94;33.21;101346.47;4882876;29;48234;-91
2023/07/21 22:22:37;;;;;;;;;4.00;4.00;;;;;21.73;33.61;101309.19;4899624;29;45539;-92
2023/07/21 22:25:02;;;;;;;;;4.00;4.00;;;;;21.91;33.11;101349.34;4902676;29;45429;-91
2023/07/21 22:27:28;;;;;;;;;7.00;5.33;;;;;21.87;33.32;101339.94;4883371;29;45568;-92
2023/07/21 22:29:54;;;;;;;;;5.00;3.67;;;;;21.84;33.53;101346.31;4885384;29;47138;-90
2023/07/21 22:32:19;;;;;;;;;3.67;3.67;;;;;21.84;33.79;101348.13;4902756;28;45279;-91
2023/07/21 22:34:45;;;;;;;;;5.00;5.00;;;;;21.72;33.61;101337.47;4885177;29;45304;-90
2023/07/21 22:37:10;;;;;;;;;5.00;3.67;;;;;21.78;33.78;101345.91;4886645;29;45438;-91
2023/07/21 22:39:35;;;;;;;;;5.67;5.67;;;;;21.75;33.65;101350.50;4884455;29;47745;-90
2023/07/21 22:42:05;;;;;;;;;6.33;5.00;;;;;21.70;34.21;101351.78;4884905;29;45460;-91
2023/07/21 22:44:30;;;;;;;;;4.00;4.00;;;;;21.71;34.03;101359.63;4886587;29;45400;-90
2023/07/21 22:46:55;;;;;;;;;5.67;5.67;;;;;21.61;34.02;101346.19;4902936;29;45370;-91
2023/07/21 22:49:24;;;;;;;;;3.67;3.67;;;;;21.44;34.17;101339.47;4889216;29;46683;-91
2023/07/21 22:51:49;;;;;;;;;4.75;4.75;;;;;21.36;34.06;101329.47;4902538;28;45348;-90
2023/07/21 22:54:15;;;;;;;;;5.00;5.00;;;;;21.54;34.39;101360.84;4902190;29;45877;-91
2023/07/21 22:56:40;;;;;;;;;5.00;5.00;;;;;21.49;34.34;101363.81;4902147;29;45297;-91
2023/07/21 22:59:05;;;;;;;;;4.67;4.67;;;;;21.48;34.32;101359.47;4900794;28;45581;-90
2023/07/21 23:01:31;;;;;;;;;6.33;5.33;;;;;21.40;34.66;101351.25;4901376;28;45491;-90
2023/07/21 23:03:56;;;;;;;;;4.75;3.50;;;;;21.44;34.29;101362.47;4902309;28;45428;-90
2023/07/21 23:06:21;;;;;;;;;6.00;6.00;;;;;21.46;34.42;101377.28;4901034;29;45332;-90
2023/07/21 23:08:47;;;;;;;;;6.00;5.00;;;;;21.32;34.56;101353.59;4899468;28;46798;-91
2023/07/21 23:11:12;;;;;;;;;4.33;4.33;;;;;21.38;34.47;101379.63;4901180;29;45352;-91
2023/07/21 23:13:37;;;;;;;;;5.67;4.00;;;;;21.36;34.46;101370.94;4902095;29;45453;-90
2023/07/21 23:16:03;;;;;;;;;4.33;4.33;;;;;21.36;34.89;101379.75;4900119;28;47532;-91
2023/07/21 23:18:28;;;;;;;;;5.00;5.00;;;;;21.17;34.67;101356.41;4900924;28;47225;-90
2023/07/21 23:20:53;;;;;;;;;3.67;3.67;;;;;21.25;34.72;101357.66;4902114;28;45485;-91
2023/07/21 23:23:19;;;;;;;;;6.33;5.67;;;;;21.30;34.45;101366.94;4900825;29;45356;-91
2023/07/21 23:25:44;;;;;;;;;5.00;5.00;;;;;21.31;34.84;101379.25;4901785;29;45545;-90
2023/07/21 23:28:09;;;;;;;;;4.00;4.00;;;;;21.28;34.71;101366.22;4900487;29;48404;-91
2023/07/21 23:30:35;;;;;;;;;4.00;4.00;;;;;21.32;35.12;101374.78;4897676;29;46746;-91
2023/07/21 23:33:00;;;;;;;;;5.50;4.75;;;;;21.33;34.91;101376.47;4901587;29;45414;-91
2023/07/21 23:35:25;;;;;;;;;6.50;6.50;;;;;21.25;34.88;101363.81;4900374;29;45479;-90
2023/07/21 23:37:51;;;;;;;;;7.00;5.00;;;;;21.32;34.83;101375.63;4902009;28;45474;-90
2023/07/21 23:40:16;;;;;;;;;6.25;5.00;;;;;21.21;35.04;101360.50;4900500;29;45466;-91
2023/07/21 23:42:43;;;;;;;;;5.50;5.00;;;;;21.31;35.09;101375.72;4900997;29;45494;-90
2023/07/21 23:45:13;;;;;;;;;6.00;5.00;;;;;21.23;35.29;101363.03;4899728;28;45537;-90
2023/07/21 23:47:40;;;;;;;;;5.00;4.67;;;;;21.27;34.75;101377.75;4899431;28;48459;-91
2023/07/21 23:50:06;;;;;;;;;5.00;4.33;;;;;21.20;34.74;101371.22;4900028;29;45408;-90
2023/07/21 23:52:31;;;;;;;;;4.00;4.00;;;;;21.21;34.97;101379.03;4899563;28;45392;-90
2023/07/21 23:54:57;;;;;;;;;5.33;4.33;;;;;21.17;35.05;101372.28;4901301;29;45572;-90
2023/07/21 23:57:22;;;;;;;;;4.67;4.00;;;;;21.06;35.19;101358.97;4899514;29;46897;-91
2023/07/21 23:59:47;;;;;;;;;4.33;4.00;;;;;21.06;35.39;101365.09;4899518;28;45624;-90
